Time;durP1;ratioP1;P1;durP2;ratioP2;P2;SDS_P1;SDS_P2;PMS_P1;PMS_P2;Temp;Humidity;BMP_temperature;BMP_pressure;BME280_temperature;BME280_humidity;BME280_pressure;Samples;Min_cycle;Max_cycle;Signal;HPM_P1;HPM_P2
2024/01/28 00:01:56;;;;;;;8.32;3.10;;;;;;;3.95;54.83;95577.13;4190328;28;20044;-66
2024/01/28 00:03:58;;;;;;;5.45;2.55;;;;;;;4.01;54.21;95581.09;4190284;28;20044;-67
2024/01/28 00:06:00;;;;;;;5.95;2.83;;;;;;;4.07;54.48;95586.72;4195908;28;20067;-68
2024/01/28 00:08:06;;;;;;;5.78;2.40;;;;;;;4.07;54.03;95586.72;4187007;28;20049;-67
2024/01/28 00:10:09;;;;;;;7.93;2.50;;;;;;;3.99;54.34;95588.16;4193430;28;20048;-65
2024/01/28 00:12:12;;;;;;;;;;;;;;;3.90;54.09;95585.19;4183527;28;20491;-67
2024/01/28 00:14:14;;;;;;;4.43;2.30;;;;;;;3.79;55.03;95579.88;4188321;28;20414;-66
2024/01/28 00:16:17;;;;;;;8.45;2.60;;;;;;;3.81;54.99;95590.97;4194521;28;20048;-66
2024/01/28 00:18:19;;;;;;;4.43;2.47;;;;;;;3.80;54.92;95593.66;4193670;28;20048;-65
2024/01/28 00:20:22;;;;;;;9.68;2.83;;;;;;;3.80;54.61;95598.84;4191791;28;20114;-68
2024/01/28 00:22:24;;;;;;;6.18;3.00;;;;;;;3.66;55.31;95591.94;4191365;28;20413;-66
2024/01/28 00:24:32;;;;;;;8.32;2.92;;;;;;;3.69;55.78;95597.72;4191629;28;20113;-68
2024/01/28 00:26:40;;;;;;;5.35;2.40;;;;;;;3.68;55.81;95603.84;4189688;28;20063;-67
2024/01/28 00:28:42;;;;;;;6.95;2.72;;;;;;;3.82;55.51;95602.16;4183885;28;20070;-69
2024/01/28 00:30:44;;;;;;;6.05;2.80;;;;;;;3.84;55.11;95600.31;4189543;28;20076;-66
2024/01/28 00:32:46;;;;;;;7.13;2.90;;;;;;;3.79;55.49;95602.38;4184125;28;20049;-66
2024/01/28 00:34:48;;;;;;;5.18;2.97;;;;;;;3.79;55.10;95603.19;4191458;28;20174;-67
2024/01/28 00:36:53;;;;;;;4.97;2.92;;;;;;;3.80;55.70;95599.66;4189605;28;20053;-66
2024/01/28 00:38:58;;;;;;;5.15;2.58;;;;;;;3.76;55.67;95602.53;4189830;28;20101;-66
2024/01/28 00:41:02;;;;;;;7.68;2.63;;;;;;;3.70;55.53;95603.78;4194713;28;20052;-66
2024/01/28 00:43:04;;;;;;;7.25;2.90;;;;;;;3.60;56.21;95605.25;4196261;28;20473;-66
2024/01/28 00:45:07;;;;;;;9.52;3.40;;;;;;;3.62;55.99;95609.41;4177085;28;20056;-68
2024/01/28 00:47:08;;;;;;;6.45;3.03;;;;;;;3.53;56.58;95607.41;4194793;28;20072;-66
2024/01/28 00:49:11;;;;;;;5.70;2.85;;;;;;;3.58;56.80;95610.53;4191952;28;20112;-66
2024/01/28 00:51:13;;;;;;;7.25;3.20;;;;;;;3.64;56.39;95602.38;4196601;28;20485;-67
2024/01/28 00:53:17;;;;;;;7.47;2.65;;;;;;;3.62;56.84;95606.00;4195910;28;20184;-67
2024/01/28 00:55:20;;;;;;;10.20;3.47;;;;;;;3.64;56.50;95599.78;4191499;28;20045;-66
2024/01/28 00:57:21;;;;;;;10.65;3.28;;;;;;;3.66;56.63;95607.47;4193576;28;20506;-65
2024/01/28 00:59:24;;;;;;;7.97;3.10;;;;;;;3.73;56.40;95607.94;4194716;28;20139;-66
2024/01/28 01:01:26;;;;;;;8.63;3.35;;;;;;;3.68;56.75;95619.41;4182739;28;20447;-66
2024/01/28 01:03:28;;;;;;;6.85;3.20;;;;;;;3.69;56.63;95623.66;4181034;28;20131;-66
2024/01/28 01:05:30;;;;;;;6.35;3.10;;;;;;;3.81;56.75;95626.44;4178195;28;20462;-66
2024/01/28 01:07:33;;;;;;;8.93;3.40;;;;;;;3.72;56.73;95624.38;4190632;28;20055;-66
2024/01/28 01:09:37;;;;;;;7.85;3.08;;;;;;;3.73;56.83;95620.88;4195726;28;20048;-67
2024/01/28 01:11:42;;;;;;;6.90;3.22;;;;;;;3.70;56.77;95621.91;4187104;28;20052;-65
2024/01/28 01:13:44;;;;;;;6.00;3.28;;;;;;;3.75;56.49;95630.22;4194631;28;20539;-68
2024/01/28 01:15:47;;;;;;;7.80;3.25;;;;;;;3.73;56.64;95618.28;4193521;28;20052;-66
2024/01/28 01:17:50;;;;;;;7.10;3.10;;;;;;;3.77;56.82;95614.59;4193280;28;20084;-66
2024/01/28 01:19:52;;;;;;;5.03;2.80;;;;;;;3.85;56.54;95620.09;4192655;28;20044;-66
2024/01/28 01:21:54;;;;;;;7.30;2.90;;;;;;;3.95;56.34;95617.78;4184765;28;20132;-66
2024/01/28 01:23:56;;;;;;;5.63;3.30;;;;;;;3.88;56.63;95614.75;4193827;28;20094;-66
2024/01/28 01:25:58;;;;;;;8.73;3.10;;;;;;;3.78;56.63;95617.06;4176310;28;20064;-65
2024/01/28 01:28:00;;;;;;;6.80;3.20;;;;;;;3.67;56.64;95612.53;4195222;28;20383;-65
2024/01/28 01:30:02;;;;;;;5.90;3.08;;;;;;;3.66;57.22;95618.66;4183124;28;20051;-65
2024/01/28 01:32:04;;;;;;;8.27;3.65;;;;;;;3.65;57.44;95616.97;4190742;28;20055;-65
2024/01/28 01:34:06;;;;;;;7.13;3.58;;;;;;;3.46;57.60;95616.44;4195556;28;20036;-67
2024/01/28 01:36:09;;;;;;;7.65;3.53;;;;;;;3.54;57.47;95614.22;4194223;28;20505;-66
2024/01/28 01:38:11;;;;;;;10.30;3.10;;;;;;;3.56;57.74;95617.56;4193976;28;20635;-65
2024/01/28 01:40:14;;;;;;;5.57;3.00;;;;;;;3.49;57.49;95616.28;4189433;28;20053;-66
2024/01/28 01:42:16;;;;;;;6.97;3.10;;;;;;;3.34;58.08;95612.03;4190904;28;20094;-66
2024/01/28 01:44:20;;;;;;;9.77;3.42;;;;;;;3.38;58.17;95608.34;4187112;28;20286;-66
2024/01/28 01:46:24;;;;;;;8.07;3.72;;;;;;;3.41;57.69;95605.53;4192770;28;20131;-65
2024/01/28 01:48:27;;;;;;;7.53;3.40;;;;;;;3.32;58.15;95614.72;4190652;28;20060;-67
2024/01/28 01:50:29;;;;;;;7.43;3.45;;;;;;;3.26;58.88;95612.47;4186978;28;20056;-66
2024/01/28 01:52:33;;;;;;;6.77;3.40;;;;;;;3.28;58.53;95608.88;4187182;28;20053;-66
2024/01/28 01:54:35;;;;;;;6.85;3.67;;;;;;;3.37;58.71;95607.47;4194766;28;20457;-66
2024/01/28 01:56:38;;;;;;;9.27;3.72;;;;;;;3.40;57.99;95609.91;4194878;28;21385;-66
2024/01/28 01:58:40;;;;;;;7.32;3.60;;;;;;;3.52;58.19;95616.06;4185087;28;20084;-66
2024/01/28 02:00:42;;;;;;;9.15;3.75;;;;;;;3.56;57.78;95616.72;4191731;28;20527;-67
2024/01/28 02:02:47;;;;;;;6.28;3.15;;;;;;;3.59;57.30;95621.72;4184886;28;20114;-67
2024/01/28 02:04:49;;;;;;;7.15;3.60;;;;;;;3.53;57.65;95622.09;4188905;28;20045;-65
2024/01/28 02:06:51;;;;;;;6.47;3.50;;;;;;;3.35;57.97;95624.88;4181315;28;20152;-67
2024/01/28 02:08:54;;;;;;;7.85;3.70;;;;;;;3.33;57.85;95621.53;4189003;28;20044;-66
2024/01/28 02:11:02;;;;;;;6.60;3.58;;;;;;;3.35;57.90;95629.22;4185764;28;20048;-66
2024/01/28 02:13:05;;;;;;;8.25;3.00;;;;;;;3.32;57.96;95624.25;4191445;28;20075;-64
2024/01/28 02:15:11;;;;;;;6.28;3.63;;;;;;;3.31;57.99;95614.78;4189453;28;20126;-65
2024/01/28 02:17:14;;;;;;;6.03;3.40;;;;;;;3.30;58.25;95628.69;4192407;28;20059;-67
2024/01/28 02:19:17;;;;;;;7.45;3.50;;;;;;;3.27;58.27;95632.28;4192108;28;20052;-64
2024/01/28 02:21:20;;;;;;;8.25;3.63;;;;;;;3.44;58.16;95636.44;4182599;28;20049;-66
2024/01/28 02:23:22;;;;;;;6.22;3.30;;;;;;;3.51;57.88;95634.28;4186364;28;20262;-66
2024/01/28 02:25:24;;;;;;;6.25;3.92;;;;;;;3.55;57.42;95631.44;4191019;28;20132;-63
2024/01/28 02:27:27;;;;;;;4.97;2.90;;;;;;;3.47;57.46;95631.09;4193421;28;20048;-67
2024/01/28 02:29:29;;;;;;;9.13;3.67;;;;;;;3.40;58.00;95633.22;4199507;28;20052;-67
2024/01/28 02:31:31;;;;;;;8.25;3.40;;;;;;;3.40;57.81;95635.81;4190835;28;20052;-66
2024/01/28 02:33:33;;;;;;;7.60;3.55;;;;;;;3.45;57.67;95638.94;4193399;28;20036;-68
2024/01/28 02:35:36;;;;;;;9.30;3.50;;;;;;;3.35;58.10;95640.41;4186321;28;20045;-67
2024/01/28 02:37:38;;;;;;;7.65;3.53;;;;;;;3.41;57.83;95640.03;4188772;28;20083;-68
2024/01/28 02:39:40;;;;;;;5.55;3.10;;;;;;;3.39;57.83;95647.06;4190850;28;20048;-67
2024/01/28 02:41:42;;;;;;;7.13;3.38;;;;;;;3.42;57.96;95648.63;4194087;28;20419;-67
2024/01/28 02:43:44;;;;;;;8.93;3.50;;;;;;;3.45;57.45;95643.28;4193054;28;20055;-68
2024/01/28 02:45:46;;;;;;;6.70;3.03;;;;;;;3.41;58.16;95654.75;4189863;28;20105;-67
2024/01/28 02:47:48;;;;;;;7.93;3.58;;;;;;;3.33;58.21;95657.78;4186355;28;20052;-66
2024/01/28 02:49:50;;;;;;;10.98;3.83;;;;;;;3.09;58.82;95657.50;4187611;28;20159;-65
2024/01/28 02:51:52;;;;;;;8.02;3.75;;;;;;;3.07;58.45;95660.16;4189577;28;20535;-64
2024/01/28 02:53:55;;;;;;;6.20;3.40;;;;;;;3.06;58.84;95652.50;4181610;28;20045;-64
2024/01/28 02:55:59;;;;;;;10.27;3.92;;;;;;;3.14;58.98;95657.22;4190063;28;20135;-66
2024/01/28 02:58:01;;;;;;;6.85;3.30;;;;;;;3.21;58.42;95658.53;4194640;28;20485;-67
2024/01/28 03:00:04;;;;;;;6.25;3.55;;;;;;;3.22;58.31;95662.78;4188616;28;20048;-66
2024/01/28 03:02:06;;;;;;;12.40;3.33;;;;;;;3.21;58.46;95661.97;4193474;28;20621;-68
2024/01/28 03:04:08;;;;;;;10.30;3.63;;;;;;;3.26;58.29;95667.69;4192350;28;20123;-66
2024/01/28 03:06:13;;;;;;;4.75;2.90;;;;;;;3.21;58.79;95669.72;4192438;28;20055;-68
2024/01/28 03:08:16;;;;;;;6.65;3.35;;;;;;;3.08;58.52;95669.63;4187711;28;20417;-65
2024/01/28 03:10:18;;;;;;;6.20;3.40;;;;;;;3.02;59.10;95669.97;4190915;28;20101;-65
2024/01/28 03:12:19;;;;;;;5.68;3.15;;;;;;;3.00;59.21;95674.41;4193113;28;20048;-64
2024/01/28 03:14:21;;;;;;;7.43;3.55;;;;;;;3.01;59.14;95678.66;4192597;28;20052;-65
2024/01/28 03:16:23;;;;;;;5.93;3.42;;;;;;;3.05;59.30;95684.47;4190827;28;20087;-65
2024/01/28 03:18:26;;;;;;;5.97;3.40;;;;;;;3.13;59.11;95684.03;4187862;28;20066;-65
2024/01/28 03:20:28;;;;;;;9.75;3.28;;;;;;;3.10;59.12;95681.63;4187278;28;20483;-66
2024/01/28 03:22:32;;;;;;;8.30;3.97;;;;;;;3.03;58.92;95689.78;4186988;28;20105;-65
2024/01/28 03:24:36;;;;;;;7.82;3.55;;;;;;;3.08;59.19;95689.50;4193583;28;20051;-64
2024/01/28 03:26:38;;;;;;;7.65;3.40;;;;;;;3.01;59.49;95686.44;4190494;28;20048;-65
2024/01/28 03:28:42;;;;;;;5.70;3.20;;;;;;;3.06;58.99;95693.94;4187519;28;20048;-64
2024/01/28 03:30:44;;;;;;;11.27;3.60;;;;;;;2.90;59.54;95688.78;4190700;28;20044;-66
2024/01/28 03:32:46;;;;;;;7.97;3.67;;;;;;;3.00;59.35;95689.94;4189750;28;20360;-67
2024/01/28 03:34:52;;;;;;;7.55;3.67;;;;;;;2.94;59.84;95695.44;4186347;28;20049;-64
2024/01/28 03:36:54;;;;;;;6.25;3.20;;;;;;;3.12;59.40;95687.53;4184952;28;20044;-67
2024/01/28 03:38:56;;;;;;;7.72;3.63;;;;;;;3.16;59.43;95692.47;4193366;28;20534;-66
2024/01/28 03:40:58;;;;;;;7.70;3.70;;;;;;;3.10;59.19;95699.75;4191299;28;20055;-67
2024/01/28 03:43:00;;;;;;;7.32;3.67;;;;;;;3.17;59.06;95690.72;4185917;28;20115;-68
2024/01/28 03:45:02;;;;;;;6.57;3.90;;;;;;;3.03;59.46;95696.69;4187485;28;20276;-66
2024/01/28 03:47:05;;;;;;;9.13;3.72;;;;;;;2.96;59.35;95698.78;4190399;28;20407;-65
2024/01/28 03:49:07;;;;;;;9.23;3.58;;;;;;;3.04;59.70;95703.53;4191772;28;20045;-66
2024/01/28 03:51:10;;;;;;;9.52;4.38;;;;;;;3.10;59.67;95707.50;4193661;28;20076;-66
2024/01/28 03:53:12;;;;;;;6.80;3.78;;;;;;;3.05;59.54;95703.47;4188444;28;20060;-66
2024/01/28 03:55:14;;;;;;;7.50;4.10;;;;;;;3.02;59.44;95706.22;4190255;28;20056;-66
2024/01/28 03:57:15;;;;;;;7.85;3.80;;;;;;;3.08;59.61;95711.03;4189270;28;20427;-67
2024/01/28 03:59:17;;;;;;;8.07;3.80;;;;;;;3.02;59.50;95702.78;4193820;28;20193;-66
2024/01/28 04:01:34;;;;;;;8.57;3.63;;;;;;;3.06;59.49;95706.88;4189921;28;20044;-67
2024/01/28 04:03:37;;;;;;;7.97;3.65;;;;;;;3.07;59.39;95713.69;4189230;28;20080;-66
2024/01/28 04:05:39;;;;;;;10.00;4.03;;;;;;;3.11;59.24;95717.78;4193544;28;20045;-67
2024/01/28 04:07:41;;;;;;;9.75;4.10;;;;;;;3.13;59.15;95715.94;4186299;28;20107;-66
2024/01/28 04:09:45;;;;;;;7.20;3.55;;;;;;;3.02;59.48;95729.50;4189208;28;20060;-67
2024/01/28 04:11:48;;;;;;;6.10;3.90;;;;;;;3.07;59.31;95724.88;4192475;28;20048;-66
2024/01/28 04:13:50;;;;;;;9.20;4.07;;;;;;;3.12;59.05;95727.22;4188931;28;20040;-66
2024/01/28 04:15:54;;;;;;;8.15;3.88;;;;;;;3.11;59.18;95733.31;4190009;28;20517;-64
2024/01/28 04:17:56;;;;;;;8.27;3.83;;;;;;;3.12;59.10;95726.38;4182472;28;20134;-64
2024/01/28 04:19:57;;;;;;;8.55;3.63;;;;;;;2.92;59.35;95730.94;4184035;28;20051;-66
2024/01/28 04:22:00;;;;;;;8.30;4.35;;;;;;;3.00;59.62;95739.13;4194905;28;20063;-65
2024/01/28 04:24:02;;;;;;;7.95;4.32;;;;;;;2.98;59.42;95740.94;4194351;28;20484;-67
2024/01/28 04:26:04;;;;;;;8.40;4.40;;;;;;;2.87;59.81;95740.72;4195211;28;20040;-63
2024/01/28 04:28:06;;;;;;;6.93;3.83;;;;;;;2.80;59.85;95742.84;4186873;28;20049;-66
2024/01/28 04:30:09;;;;;;;9.57;4.38;;;;;;;2.92;59.43;95741.28;4187034;28;20056;-66
2024/01/28 04:32:11;;;;;;;;;;;;;;;2.86;59.82;95742.50;4193017;28;20048;-66
2024/01/28 04:34:14;;;;;;;12.77;4.68;;;;;;;2.75;60.15;95754.34;4188787;28;19951;-67
2024/01/28 04:36:15;;;;;;;10.32;4.68;;;;;;;2.71;60.44;95748.53;4196597;28;20052;-66
2024/01/28 04:38:17;;;;;;;13.18;4.53;;;;;;;2.74;60.36;95763.03;4194972;28;20482;-64
2024/01/28 04:40:20;;;;;;;8.98;4.63;;;;;;;2.57;60.31;95769.16;4195335;28;20502;-66
2024/01/28 04:42:22;;;;;;;9.88;4.25;;;;;;;2.57;60.59;95757.03;4193922;28;20483;-68
2024/01/28 04:44:24;;;;;;;9.40;4.00;;;;;;;2.64;60.73;95752.34;4177920;28;20361;-64
2024/01/28 04:46:26;;;;;;;8.18;4.40;;;;;;;2.62;60.70;95760.22;4194457;28;20056;-67
2024/01/28 04:48:28;;;;;;;7.53;3.85;;;;;;;2.72;60.61;95757.94;4186913;28;20491;-65
2024/01/28 04:50:31;;;;;;;7.93;3.85;;;;;;;2.78;60.11;95760.19;4193791;28;20048;-65
2024/01/28 04:52:33;;;;;;;5.95;3.90;;;;;;;2.74;59.94;95757.88;4195375;28;20127;-67
2024/01/28 04:54:35;;;;;;;9.75;4.47;;;;;;;2.68;60.37;95756.44;4192669;28;20048;-68
2024/01/28 04:56:37;;;;;;;8.20;4.55;;;;;;;2.61;60.47;95757.72;4193138;28;20430;-65
2024/01/28 04:58:39;;;;;;;6.70;4.13;;;;;;;2.48;60.83;95761.91;4190817;28;20052;-66
2024/01/28 05:00:40;;;;;;;8.60;4.60;;;;;;;2.55;60.68;95760.63;4194886;28;20052;-66
2024/01/28 05:02:42;;;;;;;14.60;4.60;;;;;;;2.60;60.57;95758.63;4192667;28;20403;-67
2024/01/28 05:04:44;;;;;;;8.65;4.45;;;;;;;2.65;60.33;95754.88;4191526;28;20156;-68
2024/01/28 05:06:47;;;;;;;10.55;3.65;;;;;;;2.53;60.50;95763.28;4192057;28;20055;-67
2024/01/28 05:08:49;;;;;;;7.22;4.13;;;;;;;2.62;60.26;95760.22;4192341;28;20487;-68
2024/01/28 05:10:52;;;;;;;6.53;4.15;;;;;;;2.64;60.10;95767.88;4194946;28;20131;-66
2024/01/28 05:12:55;;;;;;;8.40;4.13;;;;;;;2.61;60.09;95768.06;4191355;28;20474;-66
2024/01/28 05:14:58;;;;;;;8.50;4.25;;;;;;;2.57;59.87;95769.16;4190483;28;20592;-64
2024/01/28 05:17:00;;;;;;;8.05;4.15;;;;;;;2.65;59.68;95769.56;4193655;28;20044;-66
2024/01/28 05:19:02;;;;;;;9.48;4.25;;;;;;;2.63;60.04;95768.81;4192657;28;20126;-65
2024/01/28 05:21:04;;;;;;;7.47;3.90;;;;;;;2.67;59.70;95765.97;4184409;28;20547;-66
2024/01/28 05:23:06;;;;;;;8.93;3.97;;;;;;;2.72;59.64;95767.47;4196084;28;20485;-67
2024/01/28 05:25:09;;;;;;;8.00;4.10;;;;;;;2.71;59.39;95773.56;4194983;28;20136;-66
2024/01/28 05:27:11;;;;;;;8.38;4.47;;;;;;;2.61;59.68;95770.66;4193561;28;20498;-65
2024/01/28 05:29:13;;;;;;;8.05;4.10;;;;;;;2.67;59.53;95772.91;4186909;28;20156;-66
2024/01/28 05:31:15;;;;;;;8.30;3.95;;;;;;;2.73;59.41;95784.66;4189111;28;20048;-67
2024/01/28 05:33:17;;;;;;;10.25;4.20;;;;;;;2.72;59.04;95783.00;4189459;28;20056;-66
2024/01/28 05:35:19;;;;;;;9.60;3.95;;;;;;;2.68;59.13;95784.91;4182217;28;20399;-66
2024/01/28 05:37:22;;;;;;;9.05;4.03;;;;;;;2.66;59.09;95789.34;4178597;28;20199;-64
2024/01/28 05:39:24;;;;;;;6.40;3.90;;;;;;;2.64;59.11;95786.81;4188581;28;20078;-65
2024/01/28 05:41:26;;;;;;;7.05;3.85;;;;;;;2.68;58.89;95787.50;4191532;28;20102;-66
2024/01/28 05:43:28;;;;;;;9.55;4.00;;;;;;;2.67;58.98;95791.84;4187375;28;20088;-67
2024/01/28 05:45:30;;;;;;;11.50;4.20;;;;;;;2.63;59.02;95798.09;4186684;28;20423;-66
2024/01/28 05:47:32;;;;;;;9.55;4.05;;;;;;;2.62;58.95;95803.34;4194276;28;20052;-67
2024/01/28 05:49:35;;;;;;;7.07;3.80;;;;;;;2.46;59.12;95801.59;4195413;28;20076;-66
2024/01/28 05:51:39;;;;;;;6.70;3.88;;;;;;;2.52;58.96;95805.63;4189911;28;20080;-66
2024/01/28 05:53:41;;;;;;;9.15;4.55;;;;;;;2.43;59.39;95806.94;4192436;28;20491;-67
2024/01/28 05:55:43;;;;;;;9.85;3.85;;;;;;;2.37;59.51;95814.22;4190567;28;20048;-66
2024/01/28 05:57:46;;;;;;;8.80;4.35;;;;;;;2.43;59.84;95816.44;4194317;28;20041;-66
2024/01/28 05:59:49;;;;;;;10.32;4.43;;;;;;;2.41;59.71;95821.72;4183947;28;20593;-65
2024/01/28 06:01:55;;;;;;;12.15;4.32;;;;;;;2.56;59.75;95819.19;4189198;28;20748;-67
2024/01/28 06:03:57;;;;;;;8.73;4.45;;;;;;;2.64;59.24;95825.63;4185315;28;20084;-67
2024/01/28 06:06:00;;;;;;;10.68;4.30;;;;;;;2.74;59.16;95815.63;4190508;28;20130;-68
2024/01/28 06:08:02;;;;;;;8.23;4.43;;;;;;;2.71;58.80;95815.81;4188204;28;20044;-66
2024/01/28 06:10:04;;;;;;;8.52;4.57;;;;;;;2.74;59.17;95825.16;4193168;28;20066;-64
2024/01/28 06:12:06;;;;;;;11.35;4.85;;;;;;;2.84;58.91;95819.38;4193379;28;20045;-67
2024/01/28 06:14:10;;;;;;;8.63;4.70;;;;;;;2.92;59.05;95823.28;4193638;28;20048;-65
2024/01/28 06:16:13;;;;;;;7.32;4.57;;;;;;;2.82;58.55;95820.41;4189913;28;20056;-66
2024/01/28 06:18:15;;;;;;;8.50;5.20;;;;;;;2.76;59.07;95834.50;4193528;28;20482;-66
2024/01/28 06:20:18;;;;;;;11.25;5.30;;;;;;;2.85;58.98;95835.75;4190576;28;20045;-66
2024/01/28 06:22:21;;;;;;;8.55;4.60;;;;;;;2.89;58.91;95833.84;4178410;28;20055;-66
2024/01/28 06:24:24;;;;;;;8.50;4.80;;;;;;;2.80;58.94;95822.22;4193303;28;20076;-65
2024/01/28 06:26:26;;;;;;;8.25;4.72;;;;;;;2.81;59.14;95829.88;4193507;28;20048;-67
2024/01/28 06:28:29;;;;;;;9.43;4.80;;;;;;;2.85;58.99;95831.41;4194880;28;20413;-66
2024/01/28 06:30:32;;;;;;;9.60;4.82;;;;;;;2.82;59.34;95833.34;4180902;28;20537;-67
2024/01/28 06:32:34;;;;;;;9.10;4.30;;;;;;;2.81;59.19;95842.00;4192961;28;20410;-67
2024/01/28 06:34:36;;;;;;;9.15;4.85;;;;;;;2.80;59.67;95836.00;4192346;28;20040;-67
2024/01/28 06:36:40;;;;;;;9.55;5.32;;;;;;;2.85;59.22;95846.09;4190743;28;20045;-67
2024/01/28 06:38:41;;;;;;;9.38;5.10;;;;;;;2.84;59.80;95836.69;4191360;28;20117;-68
2024/01/28 06:40:44;;;;;;;10.55;5.40;;;;;;;2.88;59.58;95838.16;4181360;28;20131;-67
2024/01/28 06:42:46;;;;;;;8.88;4.70;;;;;;;2.82;59.13;95847.09;4183721;28;20048;-66
2024/01/28 06:44:48;;;;;;;10.13;5.35;;;;;;;2.84;59.86;95845.25;4192776;28;20048;-68
2024/01/28 06:46:49;;;;;;;9.18;5.63;;;;;;;2.84;59.69;95841.84;4190629;28;20426;-66
2024/01/28 06:48:52;;;;;;;8.18;4.90;;;;;;;2.84;59.88;95845.25;4181828;28;20052;-67
2024/01/28 06:50:54;;;;;;;10.05;5.20;;;;;;;3.00;59.63;95855.59;4193664;28;20070;-67
2024/01/28 06:52:58;;;;;;;8.98;4.85;;;;;;;2.98;59.17;95860.03;4188405;28;20044;-66
2024/01/28 06:55:00;;;;;;;8.95;5.28;;;;;;;3.06;59.11;95857.03;4194109;28;20514;-67
2024/01/28 06:57:02;;;;;;;6.82;5.53;;;;;;;3.00;58.98;95867.72;4189307;28;20451;-67
2024/01/28 06:59:06;;;;;;;9.03;6.03;;;;;;;2.92;59.11;95860.34;4194295;28;20470;-68
2024/01/28 07:01:10;;;;;;;8.07;5.13;;;;;;;2.81;59.24;95867.88;4188309;28;20040;-66
2024/01/28 07:03:13;;;;;;;9.20;4.85;;;;;;;2.75;59.31;95865.63;4192085;28;20285;-66
2024/01/28 07:05:16;;;;;;;11.27;5.32;;;;;;;2.70;59.45;95865.88;4193889;28;20406;-68
2024/01/28 07:07:18;;;;;;;8.32;4.85;;;;;;;2.64;59.93;95856.69;4190578;28;20547;-70
2024/01/28 07:09:22;;;;;;;10.57;5.00;;;;;;;2.62;59.75;95865.44;4193924;28;20067;-68
2024/01/28 07:11:24;;;;;;;8.88;5.10;;;;;;;2.69;59.81;95859.03;4189240;28;21420;-68
2024/01/28 07:13:26;;;;;;;8.55;5.22;;;;;;;2.78;59.42;95868.88;4194011;28;20136;-68
2024/01/28 07:15:28;;;;;;;17.48;6.20;;;;;;;2.73;59.39;95873.50;4191602;28;20103;-66
2024/01/28 07:17:31;;;;;;;8.90;5.03;;;;;;;2.63;59.95;95869.72;4193576;28;20474;-67
2024/01/28 07:19:35;;;;;;;8.60;4.55;;;;;;;2.75;59.46;95881.16;4192132;28;20369;-69
2024/01/28 07:21:39;;;;;;;11.77;5.05;;;;;;;2.77;59.13;95876.72;4188621;28;20052;-67
2024/01/28 07:23:41;;;;;;;10.48;5.63;;;;;;;2.82;59.28;95875.56;4186086;28;20114;-68
2024/01/28 07:25:43;;;;;;;9.27;4.95;;;;;;;2.79;59.26;95869.72;4187196;28;20465;-66
2024/01/28 07:27:46;;;;;;;10.68;5.30;;;;;;;2.81;59.23;95873.88;4188547;28;20427;-66
2024/01/28 07:29:49;;;;;;;9.05;5.15;;;;;;;2.90;59.19;95869.13;4191584;28;20048;-68
2024/01/28 07:31:52;;;;;;;8.65;5.72;;;;;;;2.87;59.25;95877.91;4191767;28;20469;-66
2024/01/28 07:33:55;;;;;;;11.97;5.93;;;;;;;2.99;59.20;95874.66;4193883;28;20483;-66
2024/01/28 07:35:57;;;;;;;7.55;4.95;;;;;;;3.07;58.82;95884.56;4187288;28;20044;-66
2024/01/28 07:37:58;;;;;;;10.18;5.30;;;;;;;3.05;58.60;95887.28;4183238;28;20473;-68
2024/01/28 07:40:04;;;;;;;8.35;4.90;;;;;;;3.00;58.72;95883.25;4187886;28;20163;-67
2024/01/28 07:42:05;;;;;;;8.57;5.10;;;;;;;2.96;58.93;95886.91;4185343;28;20040;-68
2024/01/28 07:44:08;;;;;;;14.85;8.80;;;;;;;3.01;59.21;95882.31;4193326;28;20114;-70
2024/01/28 07:46:12;;;;;;;9.82;6.10;;;;;;;3.10;59.20;95884.41;4192456;28;20079;-66
2024/01/28 07:48:13;;;;;;;10.63;5.55;;;;;;;3.11;59.05;95880.91;4191961;28;20071;-68
2024/01/28 07:50:18;;;;;;;8.63;5.65;;;;;;;3.11;59.13;95878.31;4193134;28;20326;-66
2024/01/28 07:52:20;;;;;;;14.25;5.88;;;;;;;3.04;58.80;95888.16;4192806;28;20049;-66
2024/01/28 07:54:23;;;;;;;12.70;6.47;;;;;;;3.13;59.24;95891.19;4192003;28;20044;-66
2024/01/28 07:56:26;;;;;;;8.63;5.78;;;;;;;3.26;59.05;95890.41;4192745;28;20600;-65
2024/01/28 07:58:29;;;;;;;10.65;6.88;;;;;;;3.42;58.59;95895.59;4196931;28;20140;-69
2024/01/28 08:00:31;;;;;;;8.50;5.50;;;;;;;3.54;58.51;95888.84;4194229;28;20048;-67
2024/01/28 08:02:33;;;;;;;10.00;5.30;;;;;;;3.47;58.40;95888.38;4196435;28;20052;-67
2024/01/28 08:04:35;;;;;;;12.77;5.65;;;;;;;3.37;59.08;95887.22;4189394;28;20047;-67
2024/01/28 08:06:38;;;;;;;10.13;5.25;;;;;;;3.38;58.50;95881.13;4193628;28;20045;-67
2024/01/28 08:08:40;;;;;;;9.95;5.80;;;;;;;3.24;58.91;95883.66;4177311;28;20069;-68
2024/01/28 08:10:43;;;;;;;6.93;5.25;;;;;;;3.37;58.77;95889.81;4196451;28;20082;-68
2024/01/28 08:12:44;;;;;;;12.35;6.45;;;;;;;3.34;58.63;95887.41;4196573;28;20070;-68
2024/01/28 08:14:47;;;;;;;8.05;5.32;;;;;;;3.33;59.04;95890.06;4193852;28;20123;-68
2024/01/28 08:16:54;;;;;;;8.45;5.00;;;;;;;3.39;58.96;95890.56;4176577;28;20068;-68
2024/01/28 08:19:00;;;;;;;7.25;5.28;;;;;;;3.37;58.86;95902.75;4195314;28;20044;-67
2024/01/28 08:21:03;;;;;;;9.63;5.10;;;;;;;3.31;59.18;95897.09;4190685;28;20052;-67
2024/01/28 08:23:05;;;;;;;10.90;5.63;;;;;;;3.13;59.93;95899.78;4185068;28;20407;-66
2024/01/28 08:25:07;;;;;;;10.57;5.80;;;;;;;3.04;60.17;95897.69;4188507;28;20048;-68
2024/01/28 08:27:09;;;;;;;10.43;5.63;;;;;;;3.22;59.88;95898.44;4195271;28;20044;-67
2024/01/28 08:29:11;;;;;;;7.78;5.25;;;;;;;3.27;59.79;95905.03;4183564;28;20119;-68
2024/01/28 08:31:15;;;;;;;13.27;6.18;;;;;;;3.19;60.19;95904.63;4189294;28;20550;-68
2024/01/28 08:33:16;;;;;;;16.15;5.93;;;;;;;3.22;60.21;95909.63;4192841;28;20052;-68
2024/01/28 08:35:18;;;;;;;13.65;6.00;;;;;;;3.21;60.02;95907.97;4181640;28;20103;-67
2024/01/28 08:37:22;;;;;;;10.90;6.50;;;;;;;3.28;59.71;95914.47;4186047;28;20059;-68
2024/01/28 08:39:25;;;;;;;10.38;5.82;;;;;;;3.44;59.76;95913.59;4193340;28;20056;-69
2024/01/28 08:41:26;;;;;;;8.63;5.72;;;;;;;3.45;58.93;95915.28;4188066;28;20087;-70
2024/01/28 08:43:37;;;;;;;11.27;5.78;;;;;;;2.79;60.42;95917.13;4194170;28;20055;-70
2024/01/28 08:45:40;;;;;;;10.93;5.78;;;;;;;2.97;60.68;95912.72;4191301;28;20069;-66
2024/01/28 08:47:43;;;;;;;10.32;5.40;;;;;;;3.07;60.40;95916.47;4186460;28;20048;-67
2024/01/28 08:49:45;;;;;;;9.13;5.60;;;;;;;3.18;60.09;95913.28;4196089;28;20083;-66
2024/01/28 08:51:50;;;;;;;12.95;6.20;;;;;;;3.33;60.08;95911.63;4186638;28;20484;-66
2024/01/28 08:53:52;;;;;;;11.25;5.38;;;;;;;3.52;59.66;95916.59;4194432;28;20090;-66
2024/01/28 08:55:56;;;;;;;;;;;;;;;3.69;58.41;95919.09;4187308;28;20051;-63
2024/01/28 08:57:57;;;;;;;10.88;5.53;;;;;;;3.81;58.58;95922.75;4184964;28;19920;-67
2024/01/28 09:00:01;;;;;;;10.23;5.68;;;;;;;3.94;58.07;95919.47;4189993;28;20087;-67
2024/01/28 09:02:03;;;;;;;17.17;6.35;;;;;;;3.96;57.72;95912.41;4188663;28;20461;-67
2024/01/28 09:04:10;;;;;;;8.18;5.32;;;;;;;4.01;57.91;95928.53;4189084;28;20127;-68
2024/01/28 09:06:12;;;;;;;7.47;4.35;;;;;;;3.78;58.26;95930.69;4193382;28;20044;-66
2024/01/28 09:08:14;;;;;;;9.00;5.38;;;;;;;3.83;58.35;95933.88;4206492;28;20654;-67
2024/01/28 09:10:18;;;;;;;7.70;4.78;;;;;;;3.87;58.08;95930.19;4186178;28;20053;-67
2024/01/28 09:12:21;;;;;;;8.45;5.10;;;;;;;4.07;57.40;95929.00;4192345;28;20513;-69
2024/01/28 09:14:23;;;;;;;7.22;4.38;;;;;;;4.24;57.00;95929.81;4192264;28;20103;-69
2024/01/28 09:16:26;;;;;;;6.20;4.20;;;;;;;4.39;56.05;95928.03;4185482;28;20053;-64
2024/01/28 09:18:28;;;;;;;11.85;4.68;;;;;;;4.41;56.20;95932.22;4192914;28;20534;-66
2024/01/28 09:20:30;;;;;;;10.98;4.43;;;;;;;4.35;55.71;95930.00;4195044;28;20056;-69
2024/01/28 09:22:34;;;;;;;7.15;4.15;;;;;;;4.19;55.76;95929.22;4193660;28;20044;-66
2024/01/28 09:24:36;;;;;;;;;;;;;;;4.13;56.62;95927.84;4194704;28;20834;-65
2024/01/28 09:26:38;;;;;;;7.90;4.32;;;;;;;3.95;56.30;95924.53;4195497;28;20315;-66
2024/01/28 09:28:40;;;;;;;6.80;4.05;;;;;;;4.07;56.48;95925.59;4188458;28;20048;-67
2024/01/28 09:30:43;;;;;;;8.25;4.63;;;;;;;3.99;56.39;95922.59;4191396;28;20454;-68
2024/01/28 09:32:47;;;;;;;12.35;4.90;;;;;;;4.00;56.65;95927.72;4192563;28;20658;-66
2024/01/28 09:34:51;;;;;;;6.83;4.60;;;;;;;4.29;56.25;95918.22;4194647;28;20040;-68
2024/01/28 09:36:54;;;;;;;11.30;4.97;;;;;;;4.43;55.44;95917.41;4192786;28;20487;-67
2024/01/28 09:38:59;;;;;;;11.03;4.93;;;;;;;4.50;55.33;95920.47;4188012;28;20091;-67
2024/01/28 09:41:16;;;;;;;9.27;4.97;;;;;;;4.41;55.46;95924.44;4192390;28;20135;-68
2024/01/28 09:43:28;;;;;;;8.98;4.03;;;;;;;4.00;56.01;95919.06;4193329;28;20060;-67
2024/01/28 09:45:30;;;;;;;6.50;4.10;;;;;;;3.72;57.58;95925.00;4190799;28;20124;-70